sensor_id;sensor_type;location;lat;lon;timestamp;P1;durP1;ratioP1;P2;durP2;ratioP2
68765;SDS011;55756;45.582;11.484;2022-11-20T00:01:05;13.93;;;9.15;;
68765;SDS011;55756;45.582;11.484;2022-11-20T00:03:35;15.18;;;8.90;;
68765;SDS011;55756;45.582;11.484;2022-11-20T00:06:02;13.82;;;8.50;;
68765;SDS011;55756;45.582;11.484;2022-11-20T00:08:29;14.02;;;8.70;;
68765;SDS011;55756;45.582;11.484;2022-11-20T00:10:55;14.23;;;7.93;;
68765;SDS011;55756;45.582;11.484;2022-11-20T00:13:21;14.57;;;8.52;;
68765;SDS011;55756;45.582;11.484;2022-11-20T00:15:46;15.05;;;8.02;;
68765;SDS011;55756;45.582;11.484;2022-11-20T00:18:13;14.50;;;7.60;;
68765;SDS011;55756;45.582;11.484;2022-11-20T00:20:39;13.45;;;7.78;;
68765;SDS011;55756;45.582;11.484;2022-11-20T00:23:04;13.20;;;7.78;;
68765;SDS011;55756;45.582;11.484;2022-11-20T00:25:33;14.80;;;8.45;;
68765;SDS011;55756;45.582;11.484;2022-11-20T00:28:00;13.90;;;8.43;;
68765;SDS011;55756;45.582;11.484;2022-11-20T00:30:26;13.82;;;8.35;;
68765;SDS011;55756;45.582;11.484;2022-11-20T00:32:52;14.30;;;8.48;;
68765;SDS011;55756;45.582;11.484;2022-11-20T00:35:18;14.65;;;8.02;;
68765;SDS011;55756;45.582;11.484;2022-11-20T00:37:43;14.48;;;8.13;;
68765;SDS011;55756;45.582;11.484;2022-11-20T00:40:09;16.23;;;9.00;;
68765;SDS011;55756;45.582;11.484;2022-11-20T00:42:35;16.13;;;9.13;;
68765;SDS011;55756;45.582;11.484;2022-11-20T00:45:01;16.52;;;9.32;;
68765;SDS011;55756;45.582;11.484;2022-11-20T00:47:27;15.63;;;9.55;;
68765;SDS011;55756;45.582;11.484;2022-11-20T00:49:53;16.85;;;10.30;;
68765;SDS011;55756;45.582;11.484;2022-11-20T00:52:18;16.65;;;10.10;;
68765;SDS011;55756;45.582;11.484;2022-11-20T00:54:44;17.33;;;10.77;;
68765;SDS011;55756;45.582;11.484;2022-11-20T00:57:11;17.58;;;10.30;;
68765;SDS011;55756;45.582;11.484;2022-11-20T00:59:37;17.10;;;10.35;;
68765;SDS011;55756;45.582;11.484;2022-11-20T01:02:03;19.08;;;9.98;;
68765;SDS011;55756;45.582;11.484;2022-11-20T01:04:28;16.65;;;9.98;;
68765;SDS011;55756;45.582;11.484;2022-11-20T01:06:54;15.50;;;9.85;;
68765;SDS011;55756;45.582;11.484;2022-11-20T01:09:20;15.65;;;9.32;;
68765;SDS011;55756;45.582;11.484;2022-11-20T01:11:46;14.43;;;9.18;;
68765;SDS011;55756;45.582;11.484;2022-11-20T01:14:12;14.95;;;9.75;;
68765;SDS011;55756;45.582;11.484;2022-11-20T01:19:12;15.82;;;10.07;;
68765;SDS011;55756;45.582;11.484;2022-11-20T01:21:40;19.58;;;10.98;;
68765;SDS011;55756;45.582;11.484;2022-11-20T01:24:08;18.90;;;11.60;;
68765;SDS011;55756;45.582;11.484;2022-11-20T01:26:37;18.10;;;11.68;;
68765;SDS011;55756;45.582;11.484;2022-11-20T01:29:04;19.17;;;11.13;;
68765;SDS011;55756;45.582;11.484;2022-11-20T01:31:32;19.85;;;12.15;;
68765;SDS011;55756;45.582;11.484;2022-11-20T01:34:00;17.52;;;12.00;;
68765;SDS011;55756;45.582;11.484;2022-11-20T01:36:28;18.27;;;11.57;;
68765;SDS011;55756;45.582;11.484;2022-11-20T01:38:56;17.67;;;11.20;;
68765;SDS011;55756;45.582;11.484;2022-11-20T01:41:24;18.33;;;12.05;;
68765;SDS011;55756;45.582;11.484;2022-11-20T01:44:10;17.67;;;11.35;;
68765;SDS011;55756;45.582;11.484;2022-11-20T01:46:40;17.52;;;11.50;;
68765;SDS011;55756;45.582;11.484;2022-11-20T01:49:30;17.73;;;11.35;;
68765;SDS011;55756;45.582;11.484;2022-11-20T01:52:21;18.00;;;11.25;;
68765;SDS011;55756;45.582;11.484;2022-11-20T01:54:56;17.52;;;10.98;;
68765;SDS011;55756;45.582;11.484;2022-11-20T01:57:27;18.60;;;10.68;;
68765;SDS011;55756;45.582;11.484;2022-11-20T01:59:57;16.63;;;9.85;;
68765;SDS011;55756;45.582;11.484;2022-11-20T02:02:38;16.58;;;10.15;;
68765;SDS011;55756;45.582;11.484;2022-11-20T02:08:02;16.73;;;10.23;;
68765;SDS011;55756;45.582;11.484;2022-11-20T02:10:29;15.60;;;9.30;;
68765;SDS011;55756;45.582;11.484;2022-11-20T02:12:56;15.65;;;9.68;;
68765;SDS011;55756;45.582;11.484;2022-11-20T02:15:40;15.65;;;10.02;;
68765;SDS011;55756;45.582;11.484;2022-11-20T02:18:07;15.52;;;10.13;;
68765;SDS011;55756;45.582;11.484;2022-11-20T02:20:35;17.17;;;9.70;;
68765;SDS011;55756;45.582;11.484;2022-11-20T02:23:03;16.83;;;11.27;;
68765;SDS011;55756;45.582;11.484;2022-11-20T02:25:36;19.67;;;11.88;;
68765;SDS011;55756;45.582;11.484;2022-11-20T02:28:04;31.05;;;17.02;;
68765;SDS011;55756;45.582;11.484;2022-11-20T02:30:30;41.88;;;21.52;;
68765;SDS011;55756;45.582;11.484;2022-11-20T02:32:57;64.45;;;31.23;;
68765;SDS011;55756;45.582;11.484;2022-11-20T02:37:53;130.15;;;55.88;;
68765;SDS011;55756;45.582;11.484;2022-11-20T02:40:20;178.05;;;83.40;;
68765;SDS011;55756;45.582;11.484;2022-11-20T02:42:47;186.57;;;87.95;;
68765;SDS011;55756;45.582;11.484;2022-11-20T02:45:13;167.10;;;80.45;;
68765;SDS011;55756;45.582;11.484;2022-11-20T02:47:39;191.35;;;87.40;;
68765;SDS011;55756;45.582;11.484;2022-11-20T02:50:04;287.42;;;127.57;;
68765;SDS011;55756;45.582;11.484;2022-11-20T02:52:31;359.88;;;156.00;;
68765;SDS011;55756;45.582;11.484;2022-11-20T02:54:57;464.40;;;228.05;;
68765;SDS011;55756;45.582;11.484;2022-11-20T02:57:23;471.15;;;232.07;;
68765;SDS011;55756;45.582;11.484;2022-11-20T02:59:48;478.70;;;242.23;;
68765;SDS011;55756;45.582;11.484;2022-11-20T03:02:14;504.05;;;255.50;;
68765;SDS011;55756;45.582;11.484;2022-11-20T03:04:40;493.77;;;254.27;;
68765;SDS011;55756;45.582;11.484;2022-11-20T03:07:07;459.20;;;225.30;;
68765;SDS011;55756;45.582;11.484;2022-11-20T03:09:33;440.17;;;211.05;;
68765;SDS011;55756;45.582;11.484;2022-11-20T03:11:59;473.83;;;232.25;;
68765;SDS011;55756;45.582;11.484;2022-11-20T03:14:24;440.98;;;214.27;;
68765;SDS011;55756;45.582;11.484;2022-11-20T03:16:50;337.50;;;148.38;;
68765;SDS011;55756;45.582;11.484;2022-11-20T03:19:16;228.73;;;100.68;;
68765;SDS011;55756;45.582;11.484;2022-11-20T03:21:42;73.43;;;35.08;;
68765;SDS011;55756;45.582;11.484;2022-11-20T03:24:08;49.53;;;25.25;;
68765;SDS011;55756;45.582;11.484;2022-11-20T03:26:34;42.58;;;23.48;;
68765;SDS011;55756;45.582;11.484;2022-11-20T03:29:01;36.03;;;20.23;;
68765;SDS011;55756;45.582;11.484;2022-11-20T03:31:32;25.23;;;14.18;;
68765;SDS011;55756;45.582;11.484;2022-11-20T03:34:00;24.20;;;12.02;;
68765;SDS011;55756;45.582;11.484;2022-11-20T03:36:27;23.00;;;11.45;;
68765;SDS011;55756;45.582;11.484;2022-11-20T03:38:54;18.83;;;11.20;;
68765;SDS011;55756;45.582;11.484;2022-11-20T03:41:25;20.40;;;11.57;;
68765;SDS011;55756;45.582;11.484;2022-11-20T03:43:53;19.58;;;10.95;;
68765;SDS011;55756;45.582;11.484;2022-11-20T03:46:26;18.05;;;10.00;;
68765;SDS011;55756;45.582;11.484;2022-11-20T03:48:52;18.48;;;10.52;;
68765;SDS011;55756;45.582;11.484;2022-11-20T03:51:20;16.58;;;10.25;;
68765;SDS011;55756;45.582;11.484;2022-11-20T03:53:51;17.35;;;10.05;;
68765;SDS011;55756;45.582;11.484;2022-11-20T03:56:19;18.80;;;10.73;;
68765;SDS011;55756;45.582;11.484;2022-11-20T03:58:47;16.15;;;10.18;;
68765;SDS011;55756;45.582;11.484;2022-11-20T04:01:14;17.77;;;9.77;;
68765;SDS011;55756;45.582;11.484;2022-11-20T04:03:42;36.38;;;19.45;;
68765;SDS011;55756;45.582;11.484;2022-11-20T04:06:10;100.20;;;46.33;;
68765;SDS011;55756;45.582;11.484;2022-11-20T04:08:37;122.10;;;52.80;;
68765;SDS011;55756;45.582;11.484;2022-11-20T04:11:07;120.75;;;50.42;;
68765;SDS011;55756;45.582;11.484;2022-11-20T04:13:34;97.82;;;43.15;;
68765;SDS011;55756;45.582;11.484;2022-11-20T04:16:00;89.43;;;41.00;;
68765;SDS011;55756;45.582;11.484;2022-11-20T04:18:26;85.75;;;38.70;;
68765;SDS011;55756;45.582;11.484;2022-11-20T04:20:52;71.05;;;33.35;;
68765;SDS011;55756;45.582;11.484;2022-11-20T04:23:18;62.03;;;31.23;;
68765;SDS011;55756;45.582;11.484;2022-11-20T04:25:43;75.95;;;34.25;;
68765;SDS011;55756;45.582;11.484;2022-11-20T04:28:09;82.43;;;36.85;;
68765;SDS011;55756;45.582;11.484;2022-11-20T04:30:35;100.45;;;41.70;;
68765;SDS011;55756;45.582;11.484;2022-11-20T04:33:01;119.68;;;47.60;;
68765;SDS011;55756;45.582;11.484;2022-11-20T04:35:27;117.90;;;48.80;;
68765;SDS011;55756;45.582;11.484;2022-11-20T04:37:52;111.05;;;46.88;;
68765;SDS011;55756;45.582;11.484;2022-11-20T04:40:18;108.30;;;45.67;;
68765;SDS011;55756;45.582;11.484;2022-11-20T04:42:44;111.80;;;47.75;;
68765;SDS011;55756;45.582;11.484;2022-11-20T04:45:10;104.07;;;44.13;;
68765;SDS011;55756;45.582;11.484;2022-11-20T04:47:35;99.00;;;42.55;;
68765;SDS011;55756;45.582;11.484;2022-11-20T04:50:01;109.40;;;45.58;;
68765;SDS011;55756;45.582;11.484;2022-11-20T04:52:27;93.13;;;40.03;;
68765;SDS011;55756;45.582;11.484;2022-11-20T04:54:53;87.07;;;40.60;;
68765;SDS011;55756;45.582;11.484;2022-11-20T04:57:19;91.40;;;39.85;;
68765;SDS011;55756;45.582;11.484;2022-11-20T04:59:45;92.30;;;40.30;;
68765;SDS011;55756;45.582;11.484;2022-11-20T05:02:11;93.18;;;40.90;;
68765;SDS011;55756;45.582;11.484;2022-11-20T05:04:37;89.35;;;38.47;;
68765;SDS011;55756;45.582;11.484;2022-11-20T05:07:02;79.22;;;35.83;;
68765;SDS011;55756;45.582;11.484;2022-11-20T05:09:29;86.35;;;37.67;;
68765;SDS011;55756;45.582;11.484;2022-11-20T05:11:55;81.57;;;36.38;;
68765;SDS011;55756;45.582;11.484;2022-11-20T05:14:21;79.95;;;36.33;;
68765;SDS011;55756;45.582;11.484;2022-11-20T05:16:46;89.18;;;38.95;;
68765;SDS011;55756;45.582;11.484;2022-11-20T05:19:12;70.13;;;31.90;;
68765;SDS011;55756;45.582;11.484;2022-11-20T05:21:38;62.17;;;30.67;;
68765;SDS011;55756;45.582;11.484;2022-11-20T05:24:04;64.63;;;29.38;;
68765;SDS011;55756;45.582;11.484;2022-11-20T05:26:30;53.08;;;26.23;;
68765;SDS011;55756;45.582;11.484;2022-11-20T05:28:56;38.75;;;20.70;;
68765;SDS011;55756;45.582;11.484;2022-11-20T05:31:23;34.35;;;17.88;;
68765;SDS011;55756;45.582;11.484;2022-11-20T05:33:50;32.10;;;16.55;;
68765;SDS011;55756;45.582;11.484;2022-11-20T05:36:16;33.28;;;16.95;;
68765;SDS011;55756;45.582;11.484;2022-11-20T05:38:42;32.22;;;16.80;;
68765;SDS011;55756;45.582;11.484;2022-11-20T05:41:09;35.53;;;18.38;;
68765;SDS011;55756;45.582;11.484;2022-11-20T05:43:43;39.03;;;18.20;;
68765;SDS011;55756;45.582;11.484;2022-11-20T05:46:11;34.30;;;17.75;;
68765;SDS011;55756;45.582;11.484;2022-11-20T05:48:39;32.72;;;17.30;;
68765;SDS011;55756;45.582;11.484;2022-11-20T05:51:07;34.28;;;16.00;;
68765;SDS011;55756;45.582;11.484;2022-11-20T05:53:35;25.67;;;13.52;;
68765;SDS011;55756;45.582;11.484;2022-11-20T05:56:05;25.23;;;12.48;;
68765;SDS011;55756;45.582;11.484;2022-11-20T05:58:35;24.08;;;12.27;;
68765;SDS011;55756;45.582;11.484;2022-11-20T06:01:09;25.92;;;13.48;;
68765;SDS011;55756;45.582;11.484;2022-11-20T06:03:37;29.83;;;15.23;;
68765;SDS011;55756;45.582;11.484;2022-11-20T06:06:04;29.63;;;15.10;;
68765;SDS011;55756;45.582;11.484;2022-11-20T06:08:31;29.42;;;14.68;;
68765;SDS011;55756;45.582;11.484;2022-11-20T06:10:57;29.88;;;15.63;;
68765;SDS011;55756;45.582;11.484;2022-11-20T06:13:27;32.05;;;16.23;;
68765;SDS011;55756;45.582;11.484;2022-11-20T06:15:53;34.78;;;17.77;;
68765;SDS011;55756;45.582;11.484;2022-11-20T06:18:19;35.88;;;18.27;;
68765;SDS011;55756;45.582;11.484;2022-11-20T06:20:45;36.10;;;17.35;;
68765;SDS011;55756;45.582;11.484;2022-11-20T06:23:11;40.58;;;20.08;;
68765;SDS011;55756;45.582;11.484;2022-11-20T06:25:41;44.03;;;21.85;;
68765;SDS011;55756;45.582;11.484;2022-11-20T06:28:08;45.65;;;24.75;;
68765;SDS011;55756;45.582;11.484;2022-11-20T06:30:34;50.80;;;26.17;;
68765;SDS011;55756;45.582;11.484;2022-11-20T06:33:00;56.78;;;28.77;;
68765;SDS011;55756;45.582;11.484;2022-11-20T06:35:26;58.47;;;29.45;;
68765;SDS011;55756;45.582;11.484;2022-11-20T06:37:52;57.25;;;29.63;;
68765;SDS011;55756;45.582;11.484;2022-11-20T06:40:18;53.58;;;27.85;;
68765;SDS011;55756;45.582;11.484;2022-11-20T06:42:44;49.55;;;26.38;;
68765;SDS011;55756;45.582;11.484;2022-11-20T06:45:10;52.08;;;26.75;;
68765;SDS011;55756;45.582;11.484;2022-11-20T06:47:36;49.97;;;26.48;;
68765;SDS011;55756;45.582;11.484;2022-11-20T06:50:01;48.45;;;25.20;;
68765;SDS011;55756;45.582;11.484;2022-11-20T06:52:27;48.25;;;24.50;;
68765;SDS011;55756;45.582;11.484;2022-11-20T06:54:53;44.20;;;23.73;;
68765;SDS011;55756;45.582;11.484;2022-11-20T06:57:19;45.45;;;23.38;;
68765;SDS011;55756;45.582;11.484;2022-11-20T06:59:45;48.55;;;24.77;;
68765;SDS011;55756;45.582;11.484;2022-11-20T07:02:11;44.38;;;24.38;;
68765;SDS011;55756;45.582;11.484;2022-11-20T07:04:38;45.28;;;23.48;;
68765;SDS011;55756;45.582;11.484;2022-11-20T07:07:04;42.58;;;22.75;;
68765;SDS011;55756;45.582;11.484;2022-11-20T07:09:31;43.75;;;23.65;;
68765;SDS011;55756;45.582;11.484;2022-11-20T07:11:58;44.00;;;23.02;;
68765;SDS011;55756;45.582;11.484;2022-11-20T07:14:24;37.15;;;20.88;;
68765;SDS011;55756;45.582;11.484;2022-11-20T07:16:50;39.25;;;19.80;;
68765;SDS011;55756;45.582;11.484;2022-11-20T07:19:16;40.92;;;20.23;;
68765;SDS011;55756;45.582;11.484;2022-11-20T07:21:42;41.67;;;20.85;;
68765;SDS011;55756;45.582;11.484;2022-11-20T07:24:07;43.80;;;20.85;;
68765;SDS011;55756;45.582;11.484;2022-11-20T07:26:33;37.78;;;19.95;;
68765;SDS011;55756;45.582;11.484;2022-11-20T07:29:00;34.08;;;15.50;;
68765;SDS011;55756;45.582;11.484;2022-11-20T07:31:26;28.85;;;13.52;;
68765;SDS011;55756;45.582;11.484;2022-11-20T07:33:52;45.20;;;26.08;;
68765;SDS011;55756;45.582;11.484;2022-11-20T07:36:18;39.22;;;20.92;;
68765;SDS011;55756;45.582;11.484;2022-11-20T07:38:44;27.85;;;14.35;;
68765;SDS011;55756;45.582;11.484;2022-11-20T07:41:10;27.33;;;13.30;;
68765;SDS011;55756;45.582;11.484;2022-11-20T07:43:35;30.45;;;16.40;;
68765;SDS011;55756;45.582;11.484;2022-11-20T07:46:01;25.08;;;12.82;;
68765;SDS011;55756;45.582;11.484;2022-11-20T07:48:28;21.58;;;11.88;;
68765;SDS011;55756;45.582;11.484;2022-11-20T07:50:55;22.88;;;11.10;;
68765;SDS011;55756;45.582;11.484;2022-11-20T07:53:22;22.83;;;9.95;;
68765;SDS011;55756;45.582;11.484;2022-11-20T07:55:48;18.40;;;9.35;;
68765;SDS011;55756;45.582;11.484;2022-11-20T07:58:17;18.00;;;9.55;;
68765;SDS011;55756;45.582;11.484;2022-11-20T08:00:45;20.90;;;9.68;;
68765;SDS011;55756;45.582;11.484;2022-11-20T08:03:11;19.73;;;8.95;;
68765;SDS011;55756;45.582;11.484;2022-11-20T08:05:37;18.55;;;9.40;;
68765;SDS011;55756;45.582;11.484;2022-11-20T08:08:02;16.38;;;8.90;;
68765;SDS011;55756;45.582;11.484;2022-11-20T08:10:28;17.42;;;8.40;;
68765;SDS011;55756;45.582;11.484;2022-11-20T08:12:54;18.08;;;8.02;;
68765;SDS011;55756;45.582;11.484;2022-11-20T08:15:39;15.02;;;8.18;;
68765;SDS011;55756;45.582;11.484;2022-11-20T08:18:09;13.77;;;7.30;;
68765;SDS011;55756;45.582;11.484;2022-11-20T08:20:37;14.38;;;7.22;;
68765;SDS011;55756;45.582;11.484;2022-11-20T08:23:04;17.35;;;7.32;;
68765;SDS011;55756;45.582;11.484;2022-11-20T08:25:32;14.25;;;7.60;;
68765;SDS011;55756;45.582;11.484;2022-11-20T08:27:59;15.02;;;8.13;;
68765;SDS011;55756;45.582;11.484;2022-11-20T08:30:26;15.07;;;8.18;;
68765;SDS011;55756;45.582;11.484;2022-11-20T08:32:52;16.92;;;8.18;;
68765;SDS011;55756;45.582;11.484;2022-11-20T08:35:19;17.95;;;9.30;;
68765;SDS011;55756;45.582;11.484;2022-11-20T08:37:46;18.15;;;9.23;;
68765;SDS011;55756;45.582;11.484;2022-11-20T08:40:12;17.65;;;10.05;;
68765;SDS011;55756;45.582;11.484;2022-11-20T08:42:45;18.13;;;10.15;;
68765;SDS011;55756;45.582;11.484;2022-11-20T08:45:15;18.88;;;10.88;;
68765;SDS011;55756;45.582;11.484;2022-11-20T08:47:42;17.27;;;10.07;;
68765;SDS011;55756;45.582;11.484;2022-11-20T08:50:09;17.73;;;9.75;;
68765;SDS011;55756;45.582;11.484;2022-11-20T08:52:35;17.73;;;9.80;;
68765;SDS011;55756;45.582;11.484;2022-11-20T08:55:01;17.85;;;9.88;;
68765;SDS011;55756;45.582;11.484;2022-11-20T08:57:27;16.17;;;9.60;;
68765;SDS011;55756;45.582;11.484;2022-11-20T08:59:53;18.77;;;9.73;;
68765;SDS011;55756;45.582;11.484;2022-11-20T09:02:20;16.23;;;9.18;;
68765;SDS011;55756;45.582;11.484;2022-11-20T09:04:45;17.70;;;9.25;;
68765;SDS011;55756;45.582;11.484;2022-11-20T09:07:12;15.45;;;9.10;;
68765;SDS011;55756;45.582;11.484;2022-11-20T09:09:37;15.15;;;8.40;;
68765;SDS011;55756;45.582;11.484;2022-11-20T09:12:04;15.27;;;9.00;;
68765;SDS011;55756;45.582;11.484;2022-11-20T09:14:29;14.55;;;8.85;;
68765;SDS011;55756;45.582;11.484;2022-11-20T09:16:56;15.98;;;8.07;;
68765;SDS011;55756;45.582;11.484;2022-11-20T09:19:23;16.67;;;8.05;;
68765;SDS011;55756;45.582;11.484;2022-11-20T09:21:49;14.57;;;8.32;;
68765;SDS011;55756;45.582;11.484;2022-11-20T09:24:15;12.65;;;7.55;;
68765;SDS011;55756;45.582;11.484;2022-11-20T09:26:42;14.77;;;8.25;;
68765;SDS011;55756;45.582;11.484;2022-11-20T09:29:07;16.90;;;8.82;;
68765;SDS011;55756;45.582;11.484;2022-11-20T09:31:33;12.77;;;7.43;;
68765;SDS011;55756;45.582;11.484;2022-11-20T09:33:59;16.77;;;7.90;;
68765;SDS011;55756;45.582;11.484;2022-11-20T09:36:25;15.43;;;8.02;;
68765;SDS011;55756;45.582;11.484;2022-11-20T09:38:51;13.75;;;7.68;;
68765;SDS011;55756;45.582;11.484;2022-11-20T09:41:24;13.85;;;7.47;;
68765;SDS011;55756;45.582;11.484;2022-11-20T09:46:38;14.43;;;7.80;;
68765;SDS011;55756;45.582;11.484;2022-11-20T09:51:56;14.75;;;6.95;;
68765;SDS011;55756;45.582;11.484;2022-11-20T09:54:41;10.18;;;5.88;;
68765;SDS011;55756;45.582;11.484;2022-11-20T09:57:10;11.68;;;4.70;;
68765;SDS011;55756;45.582;11.484;2022-11-20T09:59:42;8.20;;;3.80;;
68765;SDS011;55756;45.582;11.484;2022-11-20T10:04:51;7.90;;;3.23;;
68765;SDS011;55756;45.582;11.484;2022-11-20T10:07:41;7.80;;;3.40;;
68765;SDS011;55756;45.582;11.484;2022-11-20T10:19:11;6.88;;;2.45;;
68765;SDS011;55756;45.582;11.484;2022-11-20T10:24:18;7.05;;;2.78;;
68765;SDS011;55756;45.582;11.484;2022-11-20T10:27:00;5.40;;;2.40;;
68765;SDS011;55756;45.582;11.484;2022-11-20T10:29:47;7.95;;;2.67;;
68765;SDS011;55756;45.582;11.484;2022-11-20T10:32:20;6.70;;;2.50;;
68765;SDS011;55756;45.582;11.484;2022-11-20T10:35:00;5.15;;;2.30;;
68765;SDS011;55756;45.582;11.484;2022-11-20T10:37:41;6.97;;;2.50;;
68765;SDS011;55756;45.582;11.484;2022-11-20T10:40:42;8.70;;;2.90;;
68765;SDS011;55756;45.582;11.484;2022-11-20T10:43:09;9.13;;;2.95;;
68765;SDS011;55756;45.582;11.484;2022-11-20T10:46:10;6.32;;;2.90;;
68765;SDS011;55756;45.582;11.484;2022-11-20T10:48:45;7.55;;;2.88;;
68765;SDS011;55756;45.582;11.484;2022-11-20T10:51:34;6.40;;;2.63;;
68765;SDS011;55756;45.582;11.484;2022-11-20T10:56:53;5.10;;;2.10;;
68765;SDS011;55756;45.582;11.484;2022-11-20T11:01:57;7.10;;;2.78;;
68765;SDS011;55756;45.582;11.484;2022-11-20T11:07:10;5.85;;;2.80;;
68765;SDS011;55756;45.582;11.484;2022-11-20T11:09:44;7.20;;;3.28;;
68765;SDS011;55756;45.582;11.484;2022-11-20T11:12:13;10.82;;;4.53;;
68765;SDS011;55756;45.582;11.484;2022-11-20T11:14:43;10.23;;;5.00;;
68765;SDS011;55756;45.582;11.484;2022-11-20T11:17:32;8.02;;;4.10;;
68765;SDS011;55756;45.582;11.484;2022-11-20T11:22:43;8.43;;;4.32;;
68765;SDS011;55756;45.582;11.484;2022-11-20T11:25:25;11.80;;;5.45;;
68765;SDS011;55756;45.582;11.484;2022-11-20T11:27:59;11.05;;;4.60;;
68765;SDS011;55756;45.582;11.484;2022-11-20T11:30:30;10.15;;;5.60;;
68765;SDS011;55756;45.582;11.484;2022-11-20T11:33:09;8.93;;;4.40;;
68765;SDS011;55756;45.582;11.484;2022-11-20T11:35:46;9.20;;;3.97;;
68765;SDS011;55756;45.582;11.484;2022-11-20T11:40:53;9.15;;;4.40;;
68765;SDS011;55756;45.582;11.484;2022-11-20T11:43:21;10.00;;;4.25;;
68765;SDS011;55756;45.582;11.484;2022-11-20T11:48:58;9.52;;;4.18;;
68765;SDS011;55756;45.582;11.484;2022-11-20T11:51:28;7.85;;;4.18;;
68765;SDS011;55756;45.582;11.484;2022-11-20T11:54:15;9.70;;;3.88;;
68765;SDS011;55756;45.582;11.484;2022-11-20T11:56:48;8.13;;;3.95;;
68765;SDS011;55756;45.582;11.484;2022-11-20T12:05:18;9.10;;;3.80;;
68765;SDS011;55756;45.582;11.484;2022-11-20T12:10:56;9.35;;;4.90;;
68765;SDS011;55756;45.582;11.484;2022-11-20T12:16:21;9.95;;;4.35;;
68765;SDS011;55756;45.582;11.484;2022-11-20T12:18:51;7.97;;;4.20;;
68765;SDS011;55756;45.582;11.484;2022-11-20T12:31:35;9.00;;;4.40;;
68765;SDS011;55756;45.582;11.484;2022-11-20T12:37:20;11.20;;;4.47;;
68765;SDS011;55756;45.582;11.484;2022-11-20T12:40:24;9.45;;;4.28;;
68765;SDS011;55756;45.582;11.484;2022-11-20T13:01:58;8.57;;;4.07;;
68765;SDS011;55756;45.582;11.484;2022-11-20T13:07:58;8.85;;;4.20;;
68765;SDS011;55756;45.582;11.484;2022-11-20T13:10:37;9.50;;;3.93;;
68765;SDS011;55756;45.582;11.484;2022-11-20T13:15:58;8.23;;;3.90;;
68765;SDS011;55756;45.582;11.484;2022-11-20T13:18:41;8.45;;;4.05;;
68765;SDS011;55756;45.582;11.484;2022-11-20T13:23:43;10.13;;;4.40;;
68765;SDS011;55756;45.582;11.484;2022-11-20T13:26:16;9.70;;;4.38;;
68765;SDS011;55756;45.582;11.484;2022-11-20T13:28:42;9.85;;;4.43;;
68765;SDS011;55756;45.582;11.484;2022-11-20T13:31:21;9.43;;;4.30;;
68765;SDS011;55756;45.582;11.484;2022-11-20T13:34:02;8.90;;;4.28;;
68765;SDS011;55756;45.582;11.484;2022-11-20T13:36:30;9.88;;;4.55;;
68765;SDS011;55756;45.582;11.484;2022-11-20T13:38:57;8.63;;;4.32;;
68765;SDS011;55756;45.582;11.484;2022-11-20T13:43:53;8.82;;;4.50;;
68765;SDS011;55756;45.582;11.484;2022-11-20T13:46:23;8.20;;;3.97;;
68765;SDS011;55756;45.582;11.484;2022-11-20T13:48:59;11.38;;;4.70;;
68765;SDS011;55756;45.582;11.484;2022-11-20T14:02:01;11.85;;;5.30;;
68765;SDS011;55756;45.582;11.484;2022-11-20T14:04:31;10.98;;;5.18;;
68765;SDS011;55756;45.582;11.484;2022-11-20T14:07:00;9.00;;;4.75;;
68765;SDS011;55756;45.582;11.484;2022-11-20T14:09:31;11.38;;;4.90;;
68765;SDS011;55756;45.582;11.484;2022-11-20T14:11:58;10.38;;;5.47;;
68765;SDS011;55756;45.582;11.484;2022-11-20T14:14:26;11.63;;;5.95;;
68765;SDS011;55756;45.582;11.484;2022-11-20T14:17:04;12.88;;;5.85;;
68765;SDS011;55756;45.582;11.484;2022-11-20T14:19:33;12.25;;;5.03;;
68765;SDS011;55756;45.582;11.484;2022-11-20T14:22:18;12.10;;;5.18;;
68765;SDS011;55756;45.582;11.484;2022-11-20T14:24:59;12.73;;;6.13;;
68765;SDS011;55756;45.582;11.484;2022-11-20T14:27:38;13.23;;;6.72;;
68765;SDS011;55756;45.582;11.484;2022-11-20T14:30:12;13.95;;;7.60;;
68765;SDS011;55756;45.582;11.484;2022-11-20T14:32:43;12.15;;;6.65;;
68765;SDS011;55756;45.582;11.484;2022-11-20T14:35:14;11.02;;;6.00;;
68765;SDS011;55756;45.582;11.484;2022-11-20T14:37:50;11.95;;;6.50;;
68765;SDS011;55756;45.582;11.484;2022-11-20T14:42:57;13.05;;;7.13;;
68765;SDS011;55756;45.582;11.484;2022-11-20T14:45:24;15.65;;;7.40;;
68765;SDS011;55756;45.582;11.484;2022-11-20T14:47:51;18.75;;;10.00;;
68765;SDS011;55756;45.582;11.484;2022-11-20T14:50:27;21.23;;;12.02;;
68765;SDS011;55756;45.582;11.484;2022-11-20T14:52:54;19.60;;;12.25;;
68765;SDS011;55756;45.582;11.484;2022-11-20T14:55:28;20.52;;;12.48;;
68765;SDS011;55756;45.582;11.484;2022-11-20T14:58:02;25.75;;;16.17;;
68765;SDS011;55756;45.582;11.484;2022-11-20T15:00:52;30.30;;;18.92;;
68765;SDS011;55756;45.582;11.484;2022-11-20T15:05:55;23.30;;;14.38;;
68765;SDS011;55756;45.582;11.484;2022-11-20T15:08:21;21.88;;;12.52;;
68765;SDS011;55756;45.582;11.484;2022-11-20T15:10:47;17.95;;;12.30;;
68765;SDS011;55756;45.582;11.484;2022-11-20T15:13:16;20.10;;;12.20;;
68765;SDS011;55756;45.582;11.484;2022-11-20T15:16:04;20.08;;;11.40;;
68765;SDS011;55756;45.582;11.484;2022-11-20T15:18:41;17.58;;;10.30;;
68765;SDS011;55756;45.582;11.484;2022-11-20T15:21:10;18.23;;;10.70;;
68765;SDS011;55756;45.582;11.484;2022-11-20T15:23:41;15.23;;;9.52;;
68765;SDS011;55756;45.582;11.484;2022-11-20T15:26:08;18.70;;;10.25;;
68765;SDS011;55756;45.582;11.484;2022-11-20T15:28:42;18.30;;;11.07;;
68765;SDS011;55756;45.582;11.484;2022-11-20T15:31:12;20.88;;;12.45;;
68765;SDS011;55756;45.582;11.484;2022-11-20T15:33:39;21.30;;;13.60;;
68765;SDS011;55756;45.582;11.484;2022-11-20T15:36:05;25.88;;;15.40;;
68765;SDS011;55756;45.582;11.484;2022-11-20T15:38:31;26.23;;;16.45;;
68765;SDS011;55756;45.582;11.484;2022-11-20T15:40:57;25.48;;;16.42;;
68765;SDS011;55756;45.582;11.484;2022-11-20T15:43:23;24.00;;;15.98;;
68765;SDS011;55756;45.582;11.484;2022-11-20T15:45:49;24.80;;;15.93;;
68765;SDS011;55756;45.582;11.484;2022-11-20T15:53:27;28.52;;;16.73;;
68765;SDS011;55756;45.582;11.484;2022-11-20T15:55:53;28.55;;;16.77;;
68765;SDS011;55756;45.582;11.484;2022-11-20T15:58:19;27.05;;;17.70;;
68765;SDS011;55756;45.582;11.484;2022-11-20T16:00:45;29.45;;;19.30;;
68765;SDS011;55756;45.582;11.484;2022-11-20T16:03:11;36.63;;;24.10;;
68765;SDS011;55756;45.582;11.484;2022-11-20T16:05:38;35.63;;;24.30;;
68765;SDS011;55756;45.582;11.484;2022-11-20T16:08:05;36.83;;;23.05;;
68765;SDS011;55756;45.582;11.484;2022-11-20T16:10:30;31.77;;;19.55;;
68765;SDS011;55756;45.582;11.484;2022-11-20T16:12:56;35.42;;;18.45;;
68765;SDS011;55756;45.582;11.484;2022-11-20T16:15:43;35.63;;;20.20;;
68765;SDS011;55756;45.582;11.484;2022-11-20T16:18:16;31.77;;;18.63;;
68765;SDS011;55756;45.582;11.484;2022-11-20T16:20:44;28.63;;;17.05;;
68765;SDS011;55756;45.582;11.484;2022-11-20T16:23:11;30.60;;;17.92;;
68765;SDS011;55756;45.582;11.484;2022-11-20T16:25:37;28.52;;;17.25;;